createdAt,value
2018-09-01T00:01:19.439Z,3.4
2018-09-01T00:04:19.309Z,3.4
2018-09-01T00:07:20.171Z,3.4
2018-09-01T00:10:19.612Z,3.4
2018-09-01T00:13:19.281Z,3.4
2018-09-01T00:16:19.563Z,3.4
2018-09-01T00:19:19.801Z,3.4
2018-09-01T00:22:19.524Z,3.4
2018-09-01T00:25:19.408Z,3.4
2018-09-01T00:28:19.757Z,3.4
2018-09-01T00:31:19.878Z,3.4
2018-09-01T00:34:19.419Z,3.4
2018-09-01T00:37:20.152Z,3.4
2018-09-01T00:40:19.385Z,3.4
2018-09-01T00:43:19.555Z,3.4
2018-09-01T00:46:19.510Z,3.4
2018-09-01T00:49:19.601Z,3.4
2018-09-01T00:52:19.287Z,3.4
2018-09-01T00:55:19.375Z,3.4
2018-09-01T00:58:19.607Z,3.4
2018-09-01T01:01:19.386Z,3.4
2018-09-01T01:04:19.624Z,3.4
2018-09-01T01:07:19.384Z,3.4
2018-09-01T01:10:19.371Z,3.4
2018-09-01T01:13:19.420Z,3.4
2018-09-01T01:16:19.564Z,3.4
2018-09-01T01:19:19.450Z,3.4
2018-09-01T01:22:19.416Z,3.4
2018-09-01T01:25:19.784Z,3.4
2018-09-01T01:28:19.613Z,3.4
2018-09-01T01:31:19.497Z,3.4
2018-09-01T01:34:19.312Z,3.4
2018-09-01T01:37:19.577Z,3.4
2018-09-01T01:40:19.525Z,3.4
2018-09-01T01:43:19.425Z,3.4
2018-09-01T01:46:19.542Z,3.4
2018-09-01T01:49:19.372Z,3.4
2018-09-01T01:52:19.809Z,3.4
2018-09-01T01:55:19.482Z,3.4
2018-09-01T01:58:19.405Z,3.4
2018-09-01T02:01:19.569Z,3.4
2018-09-01T02:04:19.618Z,3.4
2018-09-01T02:07:19.368Z,3.4
2018-09-01T02:10:19.408Z,3.4
2018-09-01T02:13:19.503Z,3.4
2018-09-01T02:16:19.464Z,3.4
2018-09-01T02:19:19.461Z,3.4
2018-09-01T02:22:19.309Z,3.4
2018-09-01T02:25:20.199Z,3.4
2018-09-01T02:28:19.420Z,3.4
2018-09-01T02:31:19.344Z,3.4
2018-09-01T02:34:19.712Z,3.4
2018-09-01T02:37:19.471Z,3.4
2018-09-01T02:40:19.468Z,3.4
2018-09-01T02:43:19.374Z,3.4
2018-09-01T02:46:19.464Z,3.4
2018-09-01T02:49:19.273Z,3.4
2018-09-01T02:52:19.389Z,3.4
2018-09-01T02:55:19.714Z,3.4
2018-09-01T02:58:19.662Z,3.4
2018-09-01T03:01:19.724Z,3.4
2018-09-01T03:04:19.240Z,3.4
2018-09-01T03:07:19.500Z,3.4
2018-09-01T03:10:19.257Z,3.4
2018-09-01T03:13:19.221Z,3.4
2018-09-01T03:16:19.439Z,3.4
2018-09-01T03:19:19.423Z,3.4
2018-09-01T03:22:19.544Z,3.4
2018-09-01T03:25:19.462Z,3.4
2018-09-01T03:28:19.384Z,3.4
2018-09-01T03:31:19.712Z,3.4
2018-09-01T03:34:19.406Z,3.4
2018-09-01T03:37:19.714Z,3.4
2018-09-01T03:40:19.503Z,3.4
2018-09-01T03:43:19.383Z,3.4
2018-09-01T03:46:19.355Z,3.4
2018-09-01T03:49:19.367Z,3.4
2018-09-01T03:52:19.284Z,3.4
2018-09-01T03:55:19.434Z,3.4
2018-09-01T03:58:19.406Z,3.4
2018-09-01T04:01:19.385Z,3.4
2018-09-01T04:04:19.491Z,3.4
2018-09-01T04:07:19.560Z,3.4
2018-09-01T04:10:19.218Z,3.4
2018-09-01T04:13:19.630Z,3.4
2018-09-01T04:16:19.286Z,3.4
2018-09-01T04:19:19.430Z,3.4
2018-09-01T04:22:19.389Z,3.4
2018-09-01T04:25:19.357Z,3.4
2018-09-01T04:28:19.453Z,3.4
2018-09-01T04:31:19.455Z,3.4
2018-09-01T04:34:19.289Z,3.4
2018-09-01T04:37:19.350Z,3.4
2018-09-01T04:40:19.259Z,3.4
2018-09-01T04:43:19.385Z,3.4
2018-09-01T04:46:19.279Z,3.4
2018-09-01T04:49:19.348Z,3.4
2018-09-01T04:52:19.315Z,3.4
2018-09-01T04:55:19.744Z,3.4
2018-09-01T04:58:19.494Z,3.4
2018-09-01T05:01:20.333Z,3.4
2018-09-01T05:04:19.548Z,3.4
2018-09-01T05:07:19.588Z,3.4
2018-09-01T05:10:19.522Z,3.4
2018-09-01T05:13:19.532Z,3.4
2018-09-01T05:16:19.341Z,3.4
2018-09-01T05:19:19.362Z,3.4
2018-09-01T05:22:19.277Z,3.4
2018-09-01T05:25:19.507Z,3.4
2018-09-01T05:28:19.527Z,3.4
2018-09-01T05:31:19.577Z,3.4
2018-09-01T05:34:19.410Z,3.4
2018-09-01T05:37:19.447Z,3.4
2018-09-01T05:40:19.377Z,3.4
2018-09-01T05:43:19.363Z,3.4
2018-09-01T05:46:19.402Z,3.4
2018-09-01T05:49:19.363Z,3.4
2018-09-01T05:52:19.432Z,3.4
2018-09-01T05:55:19.377Z,3.4
2018-09-01T05:58:19.279Z,3.4
2018-09-01T06:01:19.409Z,3.4
2018-09-01T06:04:19.419Z,3.4
2018-09-01T06:07:19.380Z,3.4
2018-09-01T06:10:19.578Z,3.4
2018-09-01T06:13:19.849Z,3.4
2018-09-01T06:16:19.241Z,3.4
2018-09-01T06:19:21.108Z,3.4
2018-09-01T06:22:19.344Z,3.4
2018-09-01T06:25:19.425Z,3.4
2018-09-01T06:28:19.247Z,3.4
2018-09-01T06:31:19.321Z,3.4
2018-09-01T06:34:19.959Z,3.4
2018-09-01T06:37:19.526Z,3.4
2018-09-01T06:40:19.400Z,3.4
2018-09-01T06:43:19.366Z,3.4
2018-09-01T06:46:19.545Z,3.4
2018-09-01T06:49:19.450Z,3.4
2018-09-01T06:52:19.411Z,3.4
2018-09-01T06:55:19.312Z,3.4
2018-09-01T06:58:19.550Z,3.4
2018-09-01T07:01:19.339Z,3.7
2018-09-01T07:04:19.272Z,3.7
2018-09-01T07:07:19.304Z,3.7
2018-09-01T07:10:19.455Z,3.7
2018-09-01T07:13:19.181Z,3.7
2018-09-01T07:16:19.354Z,3.7
2018-09-01T07:19:19.421Z,3.7
2018-09-01T07:22:19.712Z,3.7
2018-09-01T07:25:19.507Z,3.7
2018-09-01T07:28:19.243Z,3.7
2018-09-01T07:31:27.178Z,3.7
2018-09-01T07:34:19.380Z,3.7
2018-09-01T07:37:19.443Z,3.7
2018-09-01T07:40:19.359Z,3.7
2018-09-01T07:43:19.407Z,3.7
2018-09-01T07:46:19.472Z,3.7
2018-09-01T07:49:19.403Z,3.7
2018-09-01T07:52:19.598Z,3.7
2018-09-01T07:55:19.457Z,3.7
2018-09-01T07:58:19.458Z,3.7
2018-09-01T08:01:19.615Z,3.8
2018-09-01T08:04:19.453Z,3.8
2018-09-01T08:07:20.067Z,3.8
2018-09-01T08:10:19.498Z,3.8
2018-09-01T08:13:19.359Z,3.8
2018-09-01T08:16:19.611Z,3.8
2018-09-01T08:19:19.500Z,3.8
2018-09-01T08:22:19.463Z,3.8
2018-09-01T08:25:19.555Z,3.8
2018-09-01T08:28:19.236Z,3.8
2018-09-01T08:31:19.658Z,3.8
2018-09-01T08:34:19.378Z,3.8
2018-09-01T08:37:19.500Z,3.8
2018-09-01T08:40:20.441Z,3.8
2018-09-01T08:43:19.893Z,3.8
2018-09-01T08:46:19.118Z,3.8
2018-09-01T08:49:19.509Z,3.8
2018-09-01T08:52:19.439Z,3.8
2018-09-01T08:55:19.479Z,3.8
2018-09-01T08:58:19.211Z,3.8
2018-09-01T09:01:19.364Z,3.9
2018-09-01T09:04:19.542Z,3.9
2018-09-01T09:07:19.363Z,3.9
2018-09-01T09:10:19.546Z,3.9
2018-09-01T09:13:19.331Z,3.9
2018-09-01T09:16:19.379Z,3.9
2018-09-01T09:19:19.226Z,3.9
2018-09-01T09:22:19.810Z,3.9
2018-09-01T09:25:19.284Z,3.9
2018-09-01T09:28:19.510Z,3.9
2018-09-01T09:31:19.267Z,3.9
2018-09-01T09:34:19.886Z,3.9
2018-09-01T09:37:19.258Z,3.9
2018-09-01T09:40:19.393Z,3.9
2018-09-01T09:43:19.234Z,3.9
2018-09-01T09:46:19.409Z,3.9
2018-09-01T09:49:19.278Z,3.9
2018-09-01T09:52:19.445Z,3.9
2018-09-01T09:55:19.391Z,3.9
2018-09-01T11:01:10.385Z,7
2018-09-01T11:04:10.487Z,7
2018-09-01T11:07:10.519Z,7
2018-09-01T11:10:10.844Z,7
2018-09-01T11:13:10.388Z,7
2018-09-01T11:16:10.534Z,7
2018-09-01T11:19:10.767Z,7
2018-09-01T11:22:10.778Z,7
2018-09-01T11:25:10.705Z,7
2018-09-01T11:28:12.262Z,7
2018-09-01T11:31:10.745Z,7
2018-09-01T11:34:11.053Z,7
2018-09-01T11:37:10.406Z,7
2018-09-01T11:40:10.703Z,7
2018-09-01T11:43:13.040Z,7
2018-09-01T11:46:10.333Z,7
2018-09-01T11:49:10.819Z,7
2018-09-01T11:52:10.906Z,7
2018-09-01T11:55:10.338Z,7
2018-09-01T11:58:10.448Z,7
2018-09-01T12:01:10.588Z,7.1
2018-09-01T12:04:10.661Z,7.1
2018-09-01T12:07:10.526Z,7.1
2018-09-01T12:10:10.460Z,7.1
2018-09-01T12:13:10.528Z,7.1
2018-09-01T12:16:10.347Z,7.1
2018-09-01T12:19:10.919Z,7.1
2018-09-01T12:22:11.092Z,7.1
2018-09-01T12:25:10.425Z,7.1
2018-09-01T12:28:11.070Z,7.1
2018-09-01T12:31:10.404Z,7.1
2018-09-01T12:34:10.558Z,7.1
2018-09-01T12:37:10.306Z,7.1
2018-09-01T12:40:10.630Z,7.1
2018-09-01T12:43:10.345Z,7.1
2018-09-01T12:46:10.622Z,7.1
2018-09-01T12:49:10.311Z,7.1
2018-09-01T12:52:10.529Z,7.1
2018-09-01T12:55:10.358Z,7.1
2018-09-01T12:58:10.474Z,7.1
2018-09-01T13:01:10.470Z,7.4
2018-09-01T13:04:10.978Z,7.4
2018-09-01T13:07:10.654Z,7.4
2018-09-01T13:10:10.349Z,7.4
2018-09-01T13:13:10.659Z,7.4
2018-09-01T13:16:10.539Z,7.4
2018-09-01T13:19:11.212Z,7.4
2018-09-01T13:22:10.347Z,7.4
2018-09-01T13:25:11.084Z,7.4
2018-09-01T13:28:10.876Z,7.4
2018-09-01T13:31:10.445Z,7.4
2018-09-01T13:34:10.748Z,7.4
2018-09-01T13:37:10.813Z,7.4
2018-09-01T13:40:12.098Z,7.4
2018-09-01T13:43:10.635Z,7.4
2018-09-01T13:46:11.944Z,7.4
2018-09-01T13:49:10.471Z,7.4
2018-09-01T13:52:10.264Z,7.4
2018-09-01T13:55:10.256Z,7.4
2018-09-01T13:58:10.365Z,7.4
2018-09-01T14:01:10.323Z,9
2018-09-01T14:04:10.650Z,9
2018-09-01T14:07:10.637Z,9
2018-09-01T14:10:10.335Z,9
2018-09-01T14:13:10.634Z,9
2018-09-01T14:16:10.423Z,9
2018-09-01T14:19:10.634Z,9
2018-09-01T14:22:10.650Z,9
2018-09-01T14:25:10.385Z,9
2018-09-01T14:28:10.429Z,9
2018-09-01T14:31:10.683Z,9
2018-09-01T14:34:11.397Z,9
2018-09-01T14:37:11.069Z,9
2018-09-01T14:40:10.768Z,9
2018-09-01T14:43:10.543Z,9
2018-09-01T14:46:10.332Z,9
2018-09-01T14:49:10.705Z,9
2018-09-01T14:52:10.393Z,9
2018-09-01T14:55:10.311Z,9
2018-09-01T14:58:10.504Z,9
2018-09-01T15:01:10.379Z,8.8
2018-09-01T15:04:10.318Z,8.8
2018-09-01T15:07:10.363Z,8.8
2018-09-01T15:10:10.838Z,8.8
2018-09-01T15:13:10.479Z,8.8
2018-09-01T15:16:10.453Z,8.8
2018-09-01T15:19:10.393Z,8.8
2018-09-01T15:22:10.475Z,8.8
2018-09-01T15:25:10.361Z,8.8
2018-09-01T15:28:10.312Z,8.8
2018-09-01T15:31:10.567Z,8.8
2018-09-01T15:34:10.573Z,8.8
2018-09-01T15:37:10.213Z,8.8
2018-09-01T15:40:10.791Z,8.8
2018-09-01T15:43:10.647Z,8.8
2018-09-01T15:46:10.400Z,8.8
2018-09-01T15:49:10.294Z,8.8
2018-09-01T15:52:10.506Z,8.8
2018-09-01T15:55:10.481Z,8.8
2018-09-01T15:58:10.492Z,8.8
2018-09-01T16:01:10.415Z,8.2
2018-09-01T16:04:10.681Z,8.2
2018-09-01T16:07:10.393Z,8.2
2018-09-01T16:10:10.481Z,8.2
2018-09-01T16:13:10.400Z,8.2
2018-09-01T16:16:10.559Z,8.2
2018-09-01T18:35:09.613Z,4.7
2018-09-01T18:38:08.759Z,4.7
2018-09-01T19:01:02.946Z,5.6
2018-09-01T19:04:02.552Z,5.6
2018-09-01T19:07:02.522Z,5.6
2018-09-01T19:10:02.318Z,5.6
2018-09-01T19:13:02.327Z,5.6
2018-09-01T19:16:02.542Z,5.6
2018-09-01T19:19:02.439Z,5.6
2018-09-01T19:22:03.118Z,5.6
2018-09-01T19:25:02.531Z,5.6
2018-09-01T19:28:02.684Z,5.6
2018-09-01T19:31:02.257Z,5.6
2018-09-01T19:34:02.461Z,5.6
2018-09-01T19:37:02.478Z,5.6
2018-09-01T19:40:02.648Z,5.6
2018-09-01T19:43:02.417Z,5.6
2018-09-01T19:46:03.139Z,5.6
2018-09-01T19:49:02.485Z,5.6
2018-09-01T19:52:02.550Z,5.6
2018-09-01T20:00:18.024Z,3.3
2018-09-01T20:03:17.559Z,3.3
2018-09-01T20:06:17.724Z,3.3
2018-09-01T20:09:17.898Z,3.3
2018-09-01T20:12:17.912Z,3.3
2018-09-01T20:15:17.711Z,3.3
2018-09-01T20:18:17.718Z,3.3
2018-09-01T20:21:17.911Z,3.3
2018-09-01T20:24:17.867Z,3.3
2018-09-01T20:27:17.540Z,3.3
2018-09-01T20:30:17.670Z,3.3
2018-09-01T20:33:17.756Z,3.3
2018-09-01T20:36:17.730Z,3.3
2018-09-01T20:39:17.722Z,3.3
2018-09-01T20:42:17.938Z,3.3
2018-09-01T20:45:17.945Z,3.3
2018-09-01T20:48:17.664Z,3.3
2018-09-01T20:51:17.921Z,3.3
2018-09-01T20:54:17.858Z,3.3
2018-09-01T20:57:17.686Z,3.3
2018-09-01T21:00:17.810Z,4
2018-09-01T21:03:18.132Z,4
2018-09-01T21:06:17.637Z,4
2018-09-01T21:09:17.698Z,4
2018-09-01T21:12:17.596Z,4
2018-09-01T21:15:17.739Z,4
2018-09-01T21:18:17.605Z,4
2018-09-01T21:21:17.938Z,4
2018-09-01T21:24:17.622Z,4
2018-09-01T21:27:17.692Z,4
2018-09-01T21:30:17.777Z,4
2018-09-01T21:33:17.639Z,4
2018-09-01T21:36:17.781Z,4
2018-09-01T21:39:17.646Z,4
2018-09-01T21:42:17.716Z,4
2018-09-01T21:45:17.978Z,4
2018-09-01T21:48:17.873Z,4
2018-09-01T21:51:17.656Z,4
2018-09-01T21:54:17.775Z,4
2018-09-01T21:57:17.629Z,4
2018-09-01T22:00:17.880Z,4
2018-09-01T22:03:17.708Z,4
2018-09-01T22:06:17.741Z,4
2018-09-01T22:09:17.909Z,4
2018-09-01T22:12:17.602Z,4
2018-09-01T22:15:17.756Z,4
2018-09-01T22:18:17.814Z,4
2018-09-01T22:21:17.748Z,4
2018-09-01T22:24:18.030Z,4
2018-09-01T22:27:17.636Z,4
2018-09-01T22:30:17.704Z,4
2018-09-01T22:33:17.769Z,4
2018-09-01T22:36:18.003Z,4
2018-09-01T22:39:18.012Z,4
2018-09-01T22:42:17.711Z,4
2018-09-01T22:45:17.652Z,4
2018-09-01T22:48:17.831Z,4
2018-09-01T22:51:17.792Z,4
2018-09-01T22:54:17.853Z,4
2018-09-01T22:57:17.718Z,4
2018-09-01T23:00:17.762Z,4
2018-09-01T23:03:17.807Z,4
2018-09-01T23:06:17.604Z,4
2018-09-01T23:09:17.863Z,4
2018-09-01T23:12:17.722Z,4
2018-09-01T23:15:17.560Z,4
2018-09-01T23:18:17.704Z,4
2018-09-01T23:21:17.960Z,4
2018-09-01T23:24:17.704Z,4
2018-09-01T23:27:17.905Z,4
2018-09-01T23:30:17.854Z,4
2018-09-01T23:33:18.311Z,4
2018-09-01T23:36:17.895Z,4
2018-09-01T23:39:17.641Z,4
2018-09-01T23:42:17.647Z,4
2018-09-01T23:45:17.915Z,4
2018-09-01T23:48:17.637Z,4
2018-09-01T23:51:17.667Z,4
2018-09-01T23:54:17.942Z,4
2018-09-01T23:57:18.035Z,4
